Time;durP1;ratioP1;P1;durP2;ratioP2;P2;SDS_P1;SDS_P2;PMS_P1;PMS_P2;Temp;Humidity;BMP_temperature;BMP_pressure;BME280_temperature;BME280_humidity;BME280_pressure;Samples;Min_cycle;Max_cycle;Signal;HPM_P1;HPM_P2
2023/08/27 00:01:30;;;;;;;10.68;9.50;;;13.10;99.90;;;;;;5109799;28;20051;-65
2023/08/27 00:03:57;;;;;;;13.45;11.02;;;13.20;99.90;;;;;;5098617;28;20405;-65
2023/08/27 00:06:24;;;;;;;12.10;10.80;;;13.10;99.90;;;;;;5093231;28;20044;-65
2023/08/27 00:08:52;;;;;;;11.80;10.32;;;13.10;99.90;;;;;;5092305;28;20044;-66
2023/08/27 00:11:19;;;;;;;11.23;9.75;;;13.10;99.90;;;;;;5093127;28;20044;-66
2023/08/27 00:13:46;;;;;;;13.32;10.85;;;13.10;99.90;;;;;;5077079;28;20052;-65
2023/08/27 00:16:14;;;;;;;11.55;9.88;;;13.10;99.90;;;;;;5092423;28;20492;-66
2023/08/27 00:18:41;;;;;;;16.25;11.40;;;13.10;99.90;;;;;;5076215;28;20056;-65
2023/08/27 00:21:08;;;;;;;12.20;10.07;;;13.10;99.90;;;;;;5094136;28;20080;-66
2023/08/27 00:23:38;;;;;;;13.35;10.73;;;13.10;99.90;;;;;;5106320;27;20048;-65
2023/08/27 00:26:07;;;;;;;12.68;9.85;;;13.10;99.90;;;;;;5097367;27;20123;-66
2023/08/27 00:28:34;;;;;;;13.70;11.25;;;13.00;99.90;;;;;;5115704;28;20152;-65
2023/08/27 00:31:03;;;;;;;12.27;10.43;;;13.00;99.90;;;;;;5115524;28;20068;-64
2023/08/27 00:33:30;;;;;;;13.02;10.60;;;13.00;99.90;;;;;;5080325;28;20557;-65
2023/08/27 00:35:57;;;;;;;12.77;10.50;;;13.00;99.90;;;;;;5096954;27;20399;-65
2023/08/27 00:38:24;;;;;;;11.63;9.93;;;13.10;99.90;;;;;;5096216;28;20419;-65
2023/08/27 00:40:50;;;;;;;11.82;10.35;;;13.00;99.90;;;;;;5096728;27;20044;-66
2023/08/27 00:43:19;;;;;;;12.93;10.65;;;13.10;99.90;;;;;;5096682;27;20050;-66
2023/08/27 00:45:46;;;;;;;13.30;9.80;;;13.00;99.90;;;;;;5095242;28;20043;-65
2023/08/27 00:48:13;;;;;;;12.50;11.00;;;13.00;99.90;;;;;;5115684;28;20051;-65
2023/08/27 00:50:40;;;;;;;14.05;11.35;;;13.00;99.90;;;;;;5097329;28;20044;-66
2023/08/27 00:53:08;;;;;;;12.63;10.68;;;13.00;99.90;;;;;;5096260;28;20774;-65
2023/08/27 00:55:36;;;;;;;13.13;10.88;;;13.00;99.90;;;;;;5079460;27;20044;-65
2023/08/27 00:58:03;;;;;;;14.25;10.93;;;13.00;99.90;;;;;;5079364;27;20044;-65
2023/08/27 01:00:32;;;;;;;12.30;10.80;;;13.00;99.90;;;;;;5079075;28;20080;-65
2023/08/27 01:02:59;;;;;;;19.75;10.60;;;13.00;99.90;;;;;;5079665;28;20067;-64
2023/08/27 01:05:26;;;;;;;16.30;10.70;;;13.00;99.90;;;;;;5077827;27;20449;-64
2023/08/27 01:07:59;;;;;;;14.10;10.43;;;13.00;99.90;;;;;;5079355;28;20047;-65
2023/08/27 01:10:40;;;;;;;14.40;10.18;;;13.00;99.90;;;;;;5113718;28;20047;-65
2023/08/27 01:13:12;;;;;;;14.80;10.68;;;13.00;99.90;;;;;;5095385;27;20056;-65
2023/08/27 01:15:41;;;;;;;11.80;10.30;;;13.10;99.90;;;;;;5096111;27;20044;-65
2023/08/27 01:18:11;;;;;;;14.95;10.45;;;13.10;99.90;;;;;;5113409;28;20046;-65
2023/08/27 01:20:38;;;;;;;11.57;10.05;;;13.10;99.90;;;;;;5114164;28;20050;-65
2023/08/27 01:23:06;;;;;;;11.75;10.30;;;13.10;99.90;;;;;;5079090;28;20052;-65
2023/08/27 01:25:40;;;;;;;14.23;10.00;;;13.10;99.90;;;;;;5096712;28;20039;-65
2023/08/27 01:28:11;;;;;;;14.57;9.63;;;13.10;99.90;;;;;;5096062;28;20036;-65
2023/08/27 01:30:44;;;;;;;12.90;9.15;;;13.10;99.90;;;;;;5077933;28;20480;-65
2023/08/27 01:33:17;;;;;;;13.18;10.45;;;13.10;99.90;;;;;;5076423;28;20067;-65
2023/08/27 01:35:44;;;;;;;12.75;10.30;;;13.10;99.90;;;;;;5095358;27;20512;-65
2023/08/27 01:38:13;;;;;;;12.50;9.52;;;13.10;99.90;;;;;;5095376;27;20464;-65
2023/08/27 01:40:41;;;;;;;11.50;10.13;;;13.10;99.90;;;;;;5095043;28;20044;-65
2023/08/27 01:43:08;;;;;;;11.32;8.75;;;13.20;99.90;;;;;;5078418;28;20427;-65
2023/08/27 01:45:34;;;;;;;11.50;9.68;;;13.10;99.90;;;;;;5111510;27;20058;-65
2023/08/27 01:48:01;;;;;;;11.48;9.40;;;13.20;99.90;;;;;;5113917;27;20054;-65
2023/08/27 01:50:28;;;;;;;12.95;9.80;;;13.20;99.90;;;;;;5095287;28;20044;-65
2023/08/27 01:52:55;;;;;;;10.15;9.05;;;13.20;99.90;;;;;;5077272;27;20504;-66
2023/08/27 01:55:23;;;;;;;13.43;9.27;;;13.10;99.90;;;;;;5094667;27;20044;-65
2023/08/27 01:57:51;;;;;;;10.23;9.02;;;13.10;99.90;;;;;;5095779;28;20048;-65
2023/08/27 02:00:20;;;;;;;11.07;9.35;;;13.10;99.90;;;;;;5096028;27;20055;-66
2023/08/27 02:02:47;;;;;;;12.55;8.88;;;13.00;99.90;;;;;;5078042;28;20055;-65
2023/08/27 02:05:14;;;;;;;10.70;8.60;;;13.00;99.90;;;;;;5077520;27;20047;-65
2023/08/27 02:07:41;;;;;;;13.30;9.95;;;13.00;99.90;;;;;;5094876;27;20048;-66
2023/08/27 02:10:09;;;;;;;12.95;9.27;;;13.00;99.90;;;;;;5076375;27;20044;-64
2023/08/27 02:12:37;;;;;;;10.23;8.80;;;12.90;99.90;;;;;;5077846;28;20052;-66
2023/08/27 02:15:06;;;;;;;11.13;9.50;;;12.90;99.90;;;;;;5093376;28;20100;-65
2023/08/27 02:17:33;;;;;;;12.00;8.63;;;12.90;99.90;;;;;;5095302;27;20077;-65
2023/08/27 02:20:00;;;;;;;10.80;9.18;;;12.90;99.90;;;;;;5078050;28;20052;-65
2023/08/27 02:22:27;;;;;;;11.18;9.48;;;12.90;99.90;;;;;;5076452;28;20055;-65
2023/08/27 02:24:54;;;;;;;10.70;9.20;;;12.90;99.90;;;;;;5094391;27;20063;-65
2023/08/27 02:27:21;;;;;;;10.43;9.23;;;12.80;99.90;;;;;;5094650;27;20048;-64
2023/08/27 02:29:49;;;;;;;13.45;10.45;;;12.90;99.90;;;;;;5093724;27;20553;-65
2023/08/27 02:32:16;;;;;;;12.80;9.52;;;12.80;99.90;;;;;;5094483;27;20044;-64
2023/08/27 02:34:43;;;;;;;9.70;8.63;;;12.80;99.90;;;;;;5076774;27;20052;-65
2023/08/27 02:37:10;;;;;;;12.13;9.75;;;12.70;99.90;;;;;;5093970;27;20048;-65
2023/08/27 02:39:37;;;;;;;10.88;9.57;;;12.80;99.90;;;;;;5094078;27;20506;-65
2023/08/27 02:42:04;;;;;;;10.85;9.60;;;12.70;99.90;;;;;;5077550;28;20048;-66
2023/08/27 02:44:31;;;;;;;11.07;8.48;;;12.70;99.90;;;;;;5110539;28;20100;-65
2023/08/27 02:46:59;;;;;;;12.50;9.45;;;12.70;99.90;;;;;;5113314;28;20465;-65
2023/08/27 02:49:26;;;;;;;13.95;9.57;;;12.70;99.90;;;;;;5093008;28;20048;-65
2023/08/27 02:51:54;;;;;;;11.10;8.75;;;12.70;99.90;;;;;;5094362;28;20047;-66
2023/08/27 02:54:20;;;;;;;12.98;8.95;;;12.70;99.90;;;;;;5094704;27;20484;-64
2023/08/27 02:56:47;;;;;;;12.90;10.50;;;12.70;99.90;;;;;;5077341;28;20101;-64
2023/08/27 02:59:14;;;;;;;9.68;8.55;;;12.70;99.90;;;;;;5093155;27;20492;-64
2023/08/27 03:01:41;;;;;;;11.63;9.55;;;12.70;99.90;;;;;;5093970;28;20076;-64
2023/08/27 03:04:09;;;;;;;11.38;8.82;;;12.70;99.90;;;;;;5076334;27;20040;-64
2023/08/27 03:06:36;;;;;;;10.32;9.23;;;12.80;99.90;;;;;;5076390;27;20067;-64
2023/08/27 03:09:03;;;;;;;12.95;9.57;;;12.70;99.90;;;;;;5092622;28;20113;-64
2023/08/27 03:11:30;;;;;;;10.85;9.13;;;12.70;99.90;;;;;;5112284;28;20100;-64
2023/08/27 03:13:57;;;;;;;11.02;9.18;;;12.80;99.90;;;;;;5095431;28;20097;-64
2023/08/27 03:16:24;;;;;;;12.13;9.82;;;12.80;99.90;;;;;;5093816;27;20054;-64
2023/08/27 03:18:51;;;;;;;12.52;10.18;;;12.80;99.90;;;;;;5092944;27;20040;-64
2023/08/27 03:21:21;;;;;;;10.77;9.32;;;12.80;99.90;;;;;;5092599;28;20058;-64
2023/08/27 03:23:48;;;;;;;10.97;9.73;;;12.80;99.90;;;;;;5094648;28;20092;-64
2023/08/27 03:26:15;;;;;;;10.32;9.23;;;12.80;99.90;;;;;;5108950;27;20046;-63
2023/08/27 03:28:41;;;;;;;11.43;9.93;;;12.80;99.90;;;;;;5131685;27;20465;-63
2023/08/27 03:31:09;;;;;;;11.15;9.25;;;12.90;99.90;;;;;;5132038;27;20058;-65
2023/08/27 03:33:36;;;;;;;12.02;9.20;;;12.80;99.90;;;;;;5109674;28;20052;-64
2023/08/27 03:36:03;;;;;;;11.50;9.60;;;12.80;99.90;;;;;;5076000;28;20159;-64
2023/08/27 03:38:31;;;;;;;11.40;9.77;;;12.90;99.90;;;;;;5093603;28;20048;-64
2023/08/27 03:40:58;;;;;;;14.38;10.57;;;12.80;99.90;;;;;;5092625;28;20062;-64
2023/08/27 03:43:25;;;;;;;10.52;9.45;;;12.90;99.90;;;;;;5093419;28;20040;-65
2023/08/27 03:45:53;;;;;;;11.57;9.57;;;12.90;99.90;;;;;;5092105;28;20104;-65
2023/08/27 03:48:21;;;;;;;10.93;9.20;;;12.90;99.90;;;;;;5093789;28;20071;-64
2023/08/27 03:50:48;;;;;;;12.07;9.93;;;12.90;99.90;;;;;;5131784;28;20126;-64
2023/08/27 03:53:15;;;;;;;10.25;9.13;;;12.90;99.90;;;;;;5113381;28;20052;-64
2023/08/27 03:55:44;;;;;;;11.52;9.30;;;12.90;99.90;;;;;;5114621;27;20053;-64
2023/08/27 03:58:12;;;;;;;12.23;10.02;;;12.90;99.90;;;;;;5117468;27;20138;-66
2023/08/27 04:00:39;;;;;;;11.15;9.60;;;12.90;99.90;;;;;;5116930;27;20050;-64
2023/08/27 04:03:06;;;;;;;12.23;9.95;;;13.00;99.90;;;;;;5136041;27;20043;-65
2023/08/27 04:05:33;;;;;;;10.60;9.02;;;13.00;99.90;;;;;;5117368;27;20059;-65
2023/08/27 04:08:00;;;;;;;12.02;9.65;;;13.00;99.90;;;;;;5135492;27;20055;-65
2023/08/27 04:10:27;;;;;;;10.63;9.20;;;13.00;99.90;;;;;;5116987;27;20122;-65
2023/08/27 04:12:56;;;;;;;11.35;8.82;;;13.00;99.90;;;;;;5117342;27;20047;-65
2023/08/27 04:15:23;;;;;;;11.75;9.05;;;13.00;99.90;;;;;;5094183;28;20059;-64
2023/08/27 04:17:50;;;;;;;10.60;9.43;;;13.00;99.90;;;;;;5079689;27;20108;-64
2023/08/27 04:20:17;;;;;;;11.10;9.85;;;13.00;99.90;;;;;;5080517;28;20487;-63
2023/08/27 04:22:44;;;;;;;9.93;8.88;;;13.50;99.90;;;;;;5078459;28;20097;-64
2023/08/27 04:25:14;;;;;;;11.52;9.35;;;13.00;99.90;;;;;;5079766;28;20097;-64
2023/08/27 04:27:41;;;;;;;;;;;13.00;99.90;;;;;;5114754;28;20047;-64
2023/08/27 04:30:11;;;;;;;12.18;9.57;;;12.90;99.90;;;;;;5115357;28;19919;-65
2023/08/27 04:32:38;;;;;;;10.93;9.00;;;12.90;99.90;;;;;;5116072;28;20502;-63
2023/08/27 04:35:05;;;;;;;10.05;9.05;;;12.70;99.90;;;;;;5078683;27;20044;-64
2023/08/27 04:37:32;;;;;;;11.30;8.82;;;12.90;99.90;;;;;;5095954;27;20044;-63
2023/08/27 04:39:59;;;;;;;11.50;8.63;;;12.90;99.90;;;;;;5097571;28;20044;-65
2023/08/27 04:42:26;;;;;;;11.35;9.23;;;12.80;99.90;;;;;;5097255;28;20050;-64
2023/08/27 04:44:53;;;;;;;15.77;9.82;;;12.80;99.90;;;;;;5097984;27;20048;-64
2023/08/27 04:47:21;;;;;;;10.68;9.50;;;12.80;99.90;;;;;;5096569;27;20051;-65
2023/08/27 04:49:48;;;;;;;16.73;10.45;;;12.70;99.90;;;;;;5096467;27;20051;-65
2023/08/27 04:52:15;;;;;;;11.73;9.68;;;12.70;99.90;;;;;;5077903;28;20101;-65
2023/08/27 04:54:42;;;;;;;10.48;8.90;;;12.70;99.90;;;;;;5079507;27;20052;-65
2023/08/27 04:57:09;;;;;;;13.32;9.05;;;12.70;99.90;;;;;;5079380;28;20048;-64
2023/08/27 04:59:36;;;;;;;12.43;10.15;;;12.70;99.90;;;;;;5079069;28;20047;-64
2023/08/27 05:02:03;;;;;;;11.35;9.23;;;12.70;99.90;;;;;;5096198;27;20050;-64
2023/08/27 05:04:32;;;;;;;13.27;9.77;;;12.70;99.90;;;;;;5132842;27;20055;-64
2023/08/27 05:06:59;;;;;;;10.93;9.18;;;12.70;99.90;;;;;;5116231;27;20055;-64
2023/08/27 05:09:26;;;;;;;12.43;8.93;;;12.70;99.90;;;;;;5116105;27;20043;-63
2023/08/27 05:11:53;;;;;;;10.98;8.77;;;12.70;99.90;;;;;;5115464;27;20050;-64
2023/08/27 05:14:20;;;;;;;12.65;9.27;;;12.70;99.90;;;;;;5098502;27;20044;-63
2023/08/27 05:16:47;;;;;;;9.73;8.73;;;12.70;99.90;;;;;;5096039;27;20052;-64
2023/08/27 05:19:14;;;;;;;12.02;9.82;;;12.80;99.90;;;;;;5094255;28;20052;-65
2023/08/27 05:21:42;;;;;;;11.95;8.80;;;12.80;99.90;;;;;;5096650;27;20044;-65
2023/08/27 05:24:09;;;;;;;11.30;9.52;;;12.80;99.90;;;;;;5079348;28;20101;-64
2023/08/27 05:26:36;;;;;;;14.68;9.15;;;12.90;99.90;;;;;;5095200;28;20051;-64
2023/08/27 05:29:04;;;;;;;13.25;9.20;;;12.90;99.90;;;;;;5095765;27;20122;-64
2023/08/27 05:31:31;;;;;;;12.63;8.95;;;13.00;99.90;;;;;;5077430;28;20055;-64
2023/08/27 05:33:58;;;;;;;11.82;8.85;;;13.00;99.90;;;;;;5078175;28;20048;-64
2023/08/27 05:36:25;;;;;;;11.52;8.85;;;13.10;99.90;;;;;;5095492;27;20052;-64
2023/08/27 05:38:53;;;;;;;12.25;7.90;;;13.30;99.90;;;;;;5078107;28;21282;-64
2023/08/27 05:41:20;;;;;;;8.27;7.10;;;13.40;99.90;;;;;;5094200;27;20097;-64
2023/08/27 05:43:48;;;;;;;9.20;7.47;;;13.50;99.90;;;;;;5112354;28;20043;-64
2023/08/27 05:46:15;;;;;;;11.30;8.02;;;13.60;99.90;;;;;;5113757;28;20055;-64
2023/08/27 05:48:43;;;;;;;9.77;7.65;;;13.70;99.90;;;;;;5096769;27;20048;-65
2023/08/27 05:51:09;;;;;;;8.85;7.43;;;13.80;99.90;;;;;;5077424;27;20048;-65
2023/08/27 05:53:36;;;;;;;9.07;7.78;;;13.90;99.90;;;;;;5078017;28;20078;-65
2023/08/27 05:56:05;;;;;;;9.20;6.47;;;14.00;99.90;;;;;;5077066;28;20064;-64
2023/08/27 05:58:32;;;;;;;8.77;7.07;;;14.00;99.90;;;;;;5095238;27;20048;-65
2023/08/27 06:00:59;;;;;;;9.32;7.20;;;14.00;99.90;;;;;;5091876;27;20051;-66
2023/08/27 06:03:26;;;;;;;11.68;7.63;;;14.00;99.90;;;;;;5115147;27;20054;-65
2023/08/27 06:05:53;;;;;;;10.75;7.50;;;14.00;99.90;;;;;;5081488;28;20040;-65
2023/08/27 06:08:20;;;;;;;10.10;7.63;;;14.00;99.90;;;;;;5083195;28;20491;-66
2023/08/27 06:10:46;;;;;;;9.35;7.05;;;14.00;99.90;;;;;;5107456;28;20491;-65
2023/08/27 06:13:15;;;;;;;9.23;7.03;;;14.10;99.90;;;;;;5107189;27;20040;-65
2023/08/27 06:15:42;;;;;;;9.88;7.28;;;14.10;99.90;;;;;;5102717;28;20044;-66
2023/08/27 06:18:09;;;;;;;14.57;7.22;;;14.20;99.90;;;;;;5109661;28;20069;-65
2023/08/27 06:20:36;;;;;;;8.32;7.40;;;14.20;99.90;;;;;;5110303;28;20126;-65
2023/08/27 06:23:04;;;;;;;8.10;6.47;;;14.30;99.90;;;;;;5092240;28;20047;-65
2023/08/27 06:25:33;;;;;;;10.50;7.63;;;14.30;99.90;;;;;;5092228;28;20471;-66
2023/08/27 06:28:02;;;;;;;8.52;6.80;;;14.40;99.90;;;;;;5110722;28;20043;-65
2023/08/27 06:30:30;;;;;;;8.40;6.85;;;14.40;99.90;;;;;;5091553;28;20062;-66
2023/08/27 06:32:57;;;;;;;9.25;6.82;;;14.50;99.90;;;;;;5093494;28;20047;-65
2023/08/27 06:35:24;;;;;;;10.52;6.93;;;14.50;99.90;;;;;;5108108;28;20047;-66
2023/08/27 06:37:51;;;;;;;10.63;7.25;;;14.50;99.90;;;;;;5093183;28;20043;-65
2023/08/27 06:40:19;;;;;;;8.02;6.80;;;14.40;99.90;;;;;;5110799;28;20487;-65
2023/08/27 06:42:46;;;;;;;9.00;6.97;;;14.40;99.90;;;;;;5091716;28;20476;-66
2023/08/27 06:45:13;;;;;;;7.68;6.50;;;14.40;99.90;;;;;;5107012;27;20487;-65
2023/08/27 06:47:41;;;;;;;8.88;6.80;;;14.40;99.90;;;;;;5110745;27;20058;-65
2023/08/27 06:50:08;;;;;;;11.52;6.35;;;14.40;99.90;;;;;;5105811;27;20500;-65
2023/08/27 06:52:35;;;;;;;8.77;6.05;;;14.40;99.90;;;;;;5093580;28;20055;-65
2023/08/27 06:55:03;;;;;;;9.48;6.30;;;14.40;99.90;;;;;;5107062;28;20444;-64
2023/08/27 06:57:30;;;;;;;10.02;5.88;;;14.40;99.90;;;;;;5083952;28;20056;-65
2023/08/27 06:59:57;;;;;;;10.55;6.63;;;14.40;99.90;;;;;;5110329;28;20093;-65
2023/08/27 07:02:27;;;;;;;7.93;5.82;;;14.50;99.90;;;;;;5078311;28;20047;-65
2023/08/27 07:04:56;;;;;;;8.23;6.20;;;14.50;99.90;;;;;;5104178;28;20052;-65
2023/08/27 07:07:23;;;;;;;9.90;6.35;;;14.60;99.90;;;;;;5103527;28;20043;-65
2023/08/27 07:09:50;;;;;;;10.38;5.72;;;14.60;99.90;;;;;;5111712;28;20040;-65
2023/08/27 07:12:18;;;;;;;8.38;5.40;;;14.60;99.90;;;;;;5100030;28;20104;-65
2023/08/27 07:14:46;;;;;;;7.13;5.30;;;14.60;99.90;;;;;;5091269;27;20139;-65
2023/08/27 07:17:14;;;;;;;7.85;5.63;;;14.60;99.90;;;;;;5112523;27;20051;-65
2023/08/27 07:19:41;;;;;;;8.38;5.65;;;14.60;99.90;;;;;;5087811;28;20469;-65
2023/08/27 07:22:10;;;;;;;6.82;4.72;;;14.60;99.90;;;;;;5083987;28;20048;-66
2023/08/27 07:24:36;;;;;;;6.60;4.85;;;14.70;99.90;;;;;;5107909;27;20047;-66
2023/08/27 07:27:04;;;;;;;7.53;4.80;;;14.70;99.90;;;;;;5087306;28;20055;-65
2023/08/27 07:29:31;;;;;;;7.55;4.47;;;14.90;99.90;;;;;;5107410;28;20047;-65
2023/08/27 07:31:58;;;;;;;6.55;4.20;;;14.90;99.90;;;;;;5104190;28;20047;-65
2023/08/27 07:34:25;;;;;;;8.35;3.20;;;15.10;99.90;;;;;;5100383;28;20047;-65
2023/08/27 07:36:51;;;;;;;4.85;3.30;;;15.20;99.90;;;;;;5107732;28;20044;-65
2023/08/27 07:39:20;;;;;;;5.38;3.10;;;15.30;99.90;;;;;;5092895;28;20096;-65
2023/08/27 07:41:47;;;;;;;4.57;3.17;;;15.30;99.90;;;;;;5108301;28;20055;-65
2023/08/27 07:44:14;;;;;;;4.28;3.10;;;15.30;99.90;;;;;;5091466;28;20455;-66
2023/08/27 07:46:42;;;;;;;5.03;2.83;;;15.40;99.90;;;;;;5096006;28;20051;-64
2023/08/27 07:49:09;;;;;;;4.60;3.25;;;15.30;99.90;;;;;;5102596;28;20056;-64
2023/08/27 07:51:36;;;;;;;5.47;3.47;;;15.30;99.90;;;;;;5092925;28;20540;-67
2023/08/27 07:54:04;;;;;;;5.30;3.30;;;15.40;99.90;;;;;;5121015;28;20044;-67
2023/08/27 07:56:32;;;;;;;5.20;3.05;;;15.40;99.90;;;;;;5091958;28;20055;-66
2023/08/27 07:58:59;;;;;;;6.28;3.50;;;15.60;99.90;;;;;;5101257;28;20047;-67
2023/08/27 08:01:27;;;;;;;4.55;3.35;;;15.70;99.90;;;;;;5092348;28;20043;-64
2023/08/27 08:03:54;;;;;;;7.03;3.67;;;15.90;99.90;;;;;;5092038;28;20044;-64
2023/08/27 08:06:21;;;;;;;5.28;3.65;;;16.00;99.90;;;;;;5101796;28;20048;-66
2023/08/27 08:08:48;;;;;;;8.48;3.40;;;16.50;99.90;;;;;;5088264;28;20124;-66
2023/08/27 08:11:16;;;;;;;7.97;3.38;;;17.50;99.90;;;;;;5087948;28;20399;-66
2023/08/27 08:13:45;;;;;;;9.27;3.55;;;18.60;99.90;;;;;;5089961;28;20047;-66
2023/08/27 08:16:12;;;;;;;5.55;2.80;;;19.90;99.90;;;;;;5089912;28;20143;-66
2023/08/27 08:18:39;;;;;;;5.35;2.97;;;20.80;99.90;;;;;;5106547;28;20135;-67
2023/08/27 08:21:06;;;;;;;5.18;2.38;;;21.30;99.90;;;;;;5101417;28;20061;-66
2023/08/27 08:23:33;;;;;;;6.82;2.80;;;21.60;99.90;;;;;;5104155;28;20048;-66
2023/08/27 08:26:00;;;;;;;4.78;2.50;;;21.40;99.90;;;;;;5101601;28;20056;-66
2023/08/27 08:28:27;;;;;;;4.40;2.78;;;21.00;99.90;;;;;;5091606;28;20063;-66
2023/08/27 08:30:55;;;;;;;6.53;2.50;;;20.60;99.90;;;;;;5087552;28;20051;-66
2023/08/27 08:33:22;;;;;;;5.22;2.22;;;20.50;99.90;;;;;;5091225;28;20047;-66
2023/08/27 08:35:49;;;;;;;3.97;2.50;;;21.00;99.90;;;;;;5100727;28;20048;-66
2023/08/27 08:38:16;;;;;;;3.40;2.20;;;22.10;99.90;;;;;;5092527;28;20056;-66
2023/08/27 08:40:45;;;;;;;8.30;2.03;;;22.90;99.90;;;;;;5104099;28;20349;-66
2023/08/27 08:43:20;;;;;;;4.22;2.28;;;23.90;99.90;;;;;;5092183;28;20078;-65
2023/08/27 08:45:57;;;;;;;4.53;2.00;;;24.60;99.90;;;;;;5106995;28;20054;-66
2023/08/27 08:48:27;;;;;;;3.03;2.08;;;24.70;99.90;;;;;;5093768;28;20048;-66
2023/08/27 08:50:55;;;;;;;4.18;2.00;;;24.90;99.90;;;;;;5090792;28;20559;-66
2023/08/27 08:53:26;;;;;;;3.65;1.58;;;24.50;99.90;;;;;;5110035;28;20100;-65
2023/08/27 08:55:56;;;;;;;2.85;1.50;;;24.00;99.90;;;;;;5111231;27;20065;-66
2023/08/27 08:58:27;;;;;;;6.95;2.17;;;23.80;99.90;;;;;;5094784;28;20125;-65
2023/08/27 09:00:55;;;;;;;5.25;1.58;;;23.00;99.90;;;;;;5109662;27;20092;-66
2023/08/27 09:03:23;;;;;;;3.97;1.58;;;23.10;99.90;;;;;;5116292;27;20051;-66
2023/08/27 09:05:52;;;;;;;3.80;1.60;;;22.70;99.90;;;;;;5087413;28;20054;-66
2023/08/27 09:08:20;;;;;;;5.23;1.77;;;23.00;99.90;;;;;;5100724;27;20075;-67
2023/08/27 09:10:49;;;;;;;3.60;1.60;;;23.40;99.90;;;;;;5089900;28;20167;-67
2023/08/27 09:13:19;;;;;;;4.10;1.67;;;24.20;99.90;;;;;;5108225;28;20082;-67
2023/08/27 09:15:46;;;;;;;2.30;1.60;;;25.20;99.90;;;;;;5089680;28;20051;-67
2023/08/27 09:18:13;;;;;;;5.90;2.03;;;25.70;99.90;;;;;;5090774;28;20047;-67
2023/08/27 09:20:40;;;;;;;4.05;1.50;;;24.80;99.70;;;;;;5112325;27;20047;-66
2023/08/27 09:23:09;;;;;;;3.20;1.25;;;25.00;99.90;;;;;;5093865;28;20054;-67
2023/08/27 09:25:36;;;;;;;2.80;1.55;;;25.60;99.50;;;;;;5094072;28;20529;-67
2023/08/27 09:28:05;;;;;;;2.65;1.50;;;26.10;98.70;;;;;;5113660;27;20481;-67
2023/08/27 09:30:33;;;;;;;3.58;1.73;;;26.30;97.50;;;;;;5095716;28;20047;-67
2023/08/27 09:33:00;;;;;;;3.65;1.42;;;26.20;97.50;;;;;;5090374;28;20059;-67
2023/08/27 09:35:38;;;;;;;2.63;1.20;;;26.20;97.80;;;;;;5107580;28;20122;-66
2023/08/27 09:38:05;;;;;;;2.92;1.20;;;26.00;97.00;;;;;;5096087;28;20058;-66
2023/08/27 09:40:33;;;;;;;3.05;1.63;;;26.40;97.30;;;;;;5082885;28;20079;-66
2023/08/27 09:43:05;;;;;;;3.22;1.50;;;26.70;96.20;;;;;;5093767;28;20059;-67
2023/08/27 09:45:32;;;;;;;2.42;1.38;;;26.80;95.50;;;;;;5088222;27;20097;-66
2023/08/27 09:47:59;;;;;;;3.25;1.73;;;26.50;96.30;;;;;;5111978;28;20047;-66
2023/08/27 09:50:29;;;;;;;2.47;1.38;;;25.90;96.40;;;;;;5081997;28;20121;-66
2023/08/27 09:53:05;;;;;;;3.22;1.67;;;25.70;96.10;;;;;;5090980;28;20509;-66
2023/08/27 09:55:34;;;;;;;2.40;1.52;;;25.20;95.00;;;;;;5110754;28;20060;-66
2023/08/27 09:58:02;;;;;;;2.25;1.40;;;24.80;96.90;;;;;;5089750;28;20134;-66
2023/08/27 10:00:29;;;;;;;3.63;1.80;;;25.30;97.00;;;;;;5083569;28;20052;-66
2023/08/27 10:02:57;;;;;;;2.38;1.48;;;25.50;96.30;;;;;;5091360;28;20044;-66
2023/08/27 10:05:28;;;;;;;3.58;1.33;;;25.80;96.70;;;;;;5103799;27;20055;-66
2023/08/27 10:08:00;;;;;;;2.85;1.88;;;26.50;95.10;;;;;;5091917;28;20475;-66
2023/08/27 10:10:27;;;;;;;2.83;1.42;;;26.90;93.90;;;;;;5104516;28;20491;-66
2023/08/27 10:12:57;;;;;;;2.92;1.40;;;27.10;92.90;;;;;;5107127;28;20047;-66
2023/08/27 10:15:24;;;;;;;;;;;27.50;94.10;;;;;;5089419;28;20055;-65
2023/08/27 10:17:53;;;;;;;2.38;1.20;;;27.10;93.00;;;;;;5104992;28;19928;-66
2023/08/27 10:20:20;;;;;;;3.47;1.33;;;26.60;93.10;;;;;;5092908;28;20059;-67
2023/08/27 10:22:48;;;;;;;2.22;1.25;;;27.00;93.80;;;;;;5080542;28;20049;-68
2023/08/27 10:25:17;;;;;;;2.65;1.20;;;27.30;93.40;;;;;;5092944;28;20044;-67
2023/08/27 10:27:47;;;;;;;4.80;1.47;;;26.70;93.40;;;;;;5109936;28;20392;-66
2023/08/27 10:30:16;;;;;;;2.92;1.20;;;26.40;93.70;;;;;;5093854;28;20404;-65
2023/08/27 10:32:43;;;;;;;3.20;1.30;;;26.60;92.20;;;;;;5108011;27;20086;-66
2023/08/27 10:35:11;;;;;;;2.40;1.50;;;26.90;93.50;;;;;;5107315;28;20511;-66
2023/08/27 10:37:41;;;;;;;2.35;1.30;;;27.50;93.10;;;;;;5101254;28;20043;-66
2023/08/27 10:40:12;;;;;;;2.08;1.00;;;27.70;92.20;;;;;;5090925;28;20097;-66
2023/08/27 10:42:39;;;;;;;2.03;1.15;;;27.20;91.40;;;;;;5090112;28;20070;-66
2023/08/27 10:45:13;;;;;;;2.30;1.10;;;27.30;92.60;;;;;;5120193;27;20074;-64
2023/08/27 10:47:42;;;;;;;2.70;1.30;;;27.70;91.60;;;;;;5107637;28;20130;-66
2023/08/27 10:50:10;;;;;;;2.63;0.95;;;26.80;92.50;;;;;;5093938;28;20058;-65
2023/08/27 10:52:50;;;;;;;2.90;1.15;;;25.70;93.30;;;;;;5105605;28;20043;-66
2023/08/27 10:55:21;;;;;;;1.98;1.02;;;24.80;93.50;;;;;;5089267;28;20048;-64
2023/08/27 10:57:48;;;;;;;2.78;1.48;;;24.10;94.50;;;;;;5104593;28;20081;-65
2023/08/27 11:00:16;;;;;;;2.67;1.27;;;23.20;97.70;;;;;;5098822;28;20063;-64
2023/08/27 11:02:58;;;;;;;2.97;1.75;;;22.60;98.10;;;;;;5106379;27;20119;-66
2023/08/27 11:05:29;;;;;;;5.93;1.40;;;22.20;99.50;;;;;;5106536;27;20055;-65
2023/08/27 11:07:59;;;;;;;3.25;1.80;;;21.90;99.60;;;;;;5093001;28;20105;-65
2023/08/27 11:10:33;;;;;;;2.63;1.40;;;21.60;99.70;;;;;;5107289;28;20145;-65
2023/08/27 11:12:59;;;;;;;2.20;1.40;;;21.60;99.90;;;;;;5083730;28;20445;-65
2023/08/27 11:15:31;;;;;;;2.95;1.88;;;21.40;99.90;;;;;;5090259;28;20055;-66
2023/08/27 11:18:00;;;;;;;3.88;1.63;;;21.30;99.90;;;;;;5089376;28;20144;-64
2023/08/27 11:20:28;;;;;;;2.85;1.60;;;21.20;99.90;;;;;;5106594;28;20071;-65
2023/08/27 11:22:57;;;;;;;2.40;1.60;;;22.20;99.90;;;;;;5101017;27;20043;-65
2023/08/27 11:25:27;;;;;;;4.85;1.42;;;23.30;99.20;;;;;;5102138;28;20106;-66
2023/08/27 11:27:54;;;;;;;2.78;1.65;;;24.60;98.20;;;;;;5107587;28;20093;-65
2023/08/27 11:30:24;;;;;;;2.83;1.48;;;25.00;96.60;;;;;;5092542;28;20047;-65
2023/08/27 11:32:51;;;;;;;4.15;1.77;;;24.90;96.40;;;;;;5089793;28;20047;-65
2023/08/27 11:35:24;;;;;;;3.38;1.60;;;24.80;96.20;;;;;;5093328;28;20134;-67
2023/08/27 11:37:52;;;;;;;2.63;1.77;;;25.40;95.70;;;;;;5102350;28;20071;-65
2023/08/27 11:40:19;;;;;;;3.30;1.80;;;25.80;95.50;;;;;;5106020;28;20035;-65
2023/08/27 11:42:50;;;;;;;3.22;2.00;;;25.40;95.00;;;;;;5107046;28;20100;-64
2023/08/27 11:45:17;;;;;;;3.15;1.60;;;24.90;95.00;;;;;;5091145;28;20052;-64
2023/08/27 11:47:45;;;;;;;2.92;1.38;;;23.90;94.90;;;;;;5108653;28;20688;-64
2023/08/27 11:50:13;;;;;;;1.80;1.02;;;22.90;96.50;;;;;;5090961;28;20124;-65
2023/08/27 11:52:41;;;;;;;6.18;1.30;;;22.70;98.00;;;;;;5104320;28;20043;-65
2023/08/27 11:55:09;;;;;;;3.50;0.90;;;22.30;98.20;;;;;;5102727;28;20044;-65
2023/08/27 11:57:36;;;;;;;2.42;0.90;;;22.10;98.40;;;;;;5092226;28;20055;-65
2023/08/27 12:00:11;;;;;;;2.00;0.95;;;22.00;97.80;;;;;;5101912;28;20436;-66
2023/08/27 12:02:39;;;;;;;7.88;1.02;;;21.50;98.60;;;;;;5089182;28;20043;-65
2023/08/27 12:05:08;;;;;;;3.28;1.00;;;20.90;99.00;;;;;;5090198;28;20123;-66
2023/08/27 12:07:36;;;;;;;1.90;0.98;;;20.30;99.90;;;;;;5108728;28;20048;-67
2023/08/27 12:10:09;;;;;;;2.80;1.15;;;20.10;99.90;;;;;;5105516;28;20055;-66
2023/08/27 12:12:38;;;;;;;3.17;1.10;;;19.60;99.90;;;;;;5109855;28;20044;-66
2023/08/27 12:15:05;;;;;;;1.90;0.82;;;19.10;99.90;;;;;;5089998;28;20052;-66
2023/08/27 12:17:36;;;;;;;5.82;1.13;;;18.90;99.90;;;;;;5111342;27;20052;-65
2023/08/27 12:20:05;;;;;;;1.50;0.60;;;18.60;99.90;;;;;;5093785;28;20062;-66
2023/08/27 12:22:40;;;;;;;2.37;0.90;;;18.20;99.90;;;;;;5095869;28;20534;-65
2023/08/27 12:25:09;;;;;;;1.80;0.90;;;17.80;99.90;;;;;;5091654;28;20294;-66
2023/08/27 12:27:37;;;;;;;2.38;0.93;;;17.30;99.90;;;;;;5089159;28;20056;-65
2023/08/27 12:30:06;;;;;;;1.67;0.68;;;17.30;99.90;;;;;;5091324;28;20059;-66
2023/08/27 12:32:34;;;;;;;2.78;0.85;;;17.20;99.90;;;;;;5088447;28;20093;-66
2023/08/27 12:35:02;;;;;;;1.85;0.95;;;17.00;99.90;;;;;;5107364;28;20449;-66
2023/08/27 12:37:29;;;;;;;2.15;0.70;;;16.90;99.90;;;;;;5108051;27;20040;-66
2023/08/27 12:39:56;;;;;;;3.00;0.80;;;17.00;99.90;;;;;;5112544;27;20055;-66
2023/08/27 12:42:26;;;;;;;2.30;0.70;;;17.00;99.90;;;;;;5086986;28;20054;-67
2023/08/27 12:44:53;;;;;;;2.00;0.80;;;17.10;99.90;;;;;;5089764;27;20076;-66